createdAt,value
2022-12-19T00:01:35.295Z,-3.83
2022-12-19T00:04:07.615Z,-3.93
2022-12-19T00:06:35.478Z,-4.00
2022-12-19T00:09:01.987Z,-3.79
2022-12-19T00:11:30.815Z,-4.01
2022-12-19T00:13:58.055Z,-4.04
2022-12-19T00:16:27.708Z,-4.04
2022-12-19T00:18:57.203Z,-4.02
2022-12-19T00:21:24.878Z,-3.91
2022-12-19T00:23:51.697Z,-3.99
2022-12-19T00:26:31.296Z,-4.09
2022-12-19T00:28:58.977Z,-4.34
2022-12-19T00:31:26.692Z,-4.44
2022-12-19T00:33:53.360Z,-4.38
2022-12-19T00:36:22.540Z,-4.46
2022-12-19T00:38:51.232Z,-5.60
2022-12-19T00:41:19.418Z,-5.75
2022-12-19T00:43:46.054Z,-5.39
2022-12-19T00:46:13.894Z,-5.13
2022-12-19T00:48:40.927Z,-5.08
2022-12-19T00:51:10.898Z,-5.10
2022-12-19T00:53:39.390Z,-5.12
2022-12-19T00:56:07.390Z,-5.11
2022-12-19T00:58:35.602Z,-5.04
2022-12-19T01:01:09.444Z,-4.97
2022-12-19T01:03:35.986Z,-5.48
2022-12-19T01:06:02.610Z,-5.48
2022-12-19T01:08:29.801Z,-5.27
2022-12-19T01:10:58.285Z,-5.12
2022-12-19T01:13:25.601Z,-5.24
2022-12-19T01:15:52.245Z,-5.53
2022-12-19T01:18:18.706Z,-5.73
2022-12-19T01:20:49.851Z,-5.53
2022-12-19T01:23:16.770Z,-5.78
2022-12-19T01:25:45.993Z,-5.74
2022-12-19T01:28:14.017Z,-5.46
2022-12-19T01:30:41.794Z,-5.42
2022-12-19T01:33:10.470Z,-5.41
2022-12-19T01:35:36.922Z,-5.46
2022-12-19T01:38:07.751Z,-5.50
2022-12-19T01:40:35.109Z,-5.49
2022-12-19T01:43:02.298Z,-5.48
2022-12-19T01:45:34.420Z,-5.24
2022-12-19T01:48:12.122Z,-4.99
2022-12-19T01:50:56.030Z,-4.97
2022-12-19T01:53:34.748Z,-5.35
2022-12-19T01:56:08.713Z,-5.44
2022-12-19T01:58:36.167Z,-6.18
2022-12-19T02:01:03.122Z,-6.72
2022-12-19T02:03:31.904Z,-6.88
2022-12-19T02:05:58.789Z,-7.03
2022-12-19T02:08:28.592Z,-6.98
2022-12-19T02:10:57.237Z,-7.01
2022-12-19T02:13:24.076Z,-7.07
2022-12-19T02:16:02.026Z,-7.39
2022-12-19T02:18:44.737Z,-7.55
2022-12-19T02:21:35.221Z,-7.30
2022-12-19T02:24:07.843Z,-6.78
2022-12-19T02:26:43.907Z,-6.77
2022-12-19T02:29:13.330Z,-7.00
2022-12-19T02:31:47.588Z,-6.89
2022-12-19T02:34:28.509Z,-6.97
2022-12-19T02:37:15.217Z,-6.88
2022-12-19T02:39:52.644Z,-7.17
2022-12-19T02:42:33.543Z,-6.99
2022-12-19T02:45:01.241Z,-6.97
2022-12-19T02:47:28.595Z,-7.66
2022-12-19T02:49:55.070Z,-7.80
2022-12-19T02:52:21.519Z,-8.11
2022-12-19T02:54:52.781Z,-8.32
2022-12-19T02:57:30.713Z,-8.11
2022-12-19T03:00:05.524Z,-7.58
2022-12-19T03:02:35.223Z,-7.43
2022-12-19T03:05:10.923Z,-7.63
2022-12-19T03:07:42.713Z,-7.47
2022-12-19T03:10:18.499Z,-7.45
2022-12-19T03:12:54.250Z,-7.47
2022-12-19T03:15:21.035Z,-7.61
2022-12-19T03:17:48.073Z,-7.85
2022-12-19T03:20:22.307Z,-7.97
2022-12-19T03:22:48.804Z,-8.01
2022-12-19T03:25:15.311Z,-7.92
2022-12-19T03:27:42.152Z,-7.97
2022-12-19T03:30:13.399Z,-8.09
2022-12-19T03:32:42.039Z,-8.31
2022-12-19T03:35:15.835Z,-7.95
2022-12-19T03:37:43.294Z,-7.80
2022-12-19T03:40:15.158Z,-8.12
2022-12-19T03:43:00.726Z,-8.21
2022-12-19T03:45:33.580Z,-8.30
2022-12-19T03:48:07.765Z,-8.33
2022-12-19T03:50:42.013Z,-8.25
2022-12-19T03:53:17.358Z,-8.10
2022-12-19T03:55:49.797Z,-8.21
2022-12-19T03:58:22.219Z,-8.09
2022-12-19T04:00:49.910Z,-7.99
2022-12-19T04:03:17.443Z,-7.88
2022-12-19T04:05:45.816Z,-8.03
2022-12-19T04:08:12.848Z,-7.95
2022-12-19T04:10:50.841Z,-7.89
2022-12-19T04:13:20.702Z,-8.04
2022-12-19T04:15:47.200Z,-8.07
2022-12-19T04:18:16.820Z,-8.04
2022-12-19T04:20:45.881Z,-7.92
2022-12-19T04:23:17.878Z,-7.77
2022-12-19T04:25:47.135Z,-7.51
2022-12-19T04:28:13.550Z,-7.34
2022-12-19T04:30:41.302Z,-7.04
2022-12-19T04:33:08.012Z,-7.00
2022-12-19T04:35:34.669Z,-6.95
2022-12-19T04:38:01.273Z,-6.91
2022-12-19T04:40:28.010Z,-7.36
2022-12-19T04:42:54.468Z,-7.27
2022-12-19T04:45:20.909Z,-6.97
2022-12-19T04:47:47.868Z,-7.11
2022-12-19T04:50:14.357Z,-7.27
2022-12-19T04:52:40.877Z,-7.35
2022-12-19T04:55:07.700Z,-7.15
2022-12-19T04:57:34.256Z,-7.10
2022-12-19T05:00:00.893Z,-7.32
2022-12-19T05:02:27.791Z,-7.41
2022-12-19T05:04:55.606Z,-7.38
2022-12-19T05:07:22.128Z,-7.33
2022-12-19T05:09:49.771Z,-7.27
2022-12-19T05:12:16.267Z,-7.24
2022-12-19T05:14:43.175Z,-7.17
2022-12-19T05:17:09.663Z,-7.08
2022-12-19T05:19:36.840Z,-6.94
2022-12-19T05:22:03.401Z,-6.89
2022-12-19T05:24:30.023Z,-6.62
2022-12-19T05:26:56.548Z,-6.44
2022-12-19T05:29:23.092Z,-6.47
2022-12-19T05:31:49.748Z,-6.35
2022-12-19T05:34:16.302Z,-6.12
2022-12-19T05:36:42.818Z,-5.73
2022-12-19T05:39:09.385Z,-5.56
2022-12-19T05:41:35.924Z,-5.69
2022-12-19T05:44:02.522Z,-5.75
2022-12-19T05:46:29.156Z,-5.63
2022-12-19T05:48:55.789Z,-5.75
2022-12-19T05:51:23.224Z,-5.87
2022-12-19T05:53:49.803Z,-5.87
2022-12-19T05:56:17.708Z,-5.89
2022-12-19T05:58:45.219Z,-5.89
2022-12-19T06:01:11.652Z,-5.84
2022-12-19T06:03:38.658Z,-5.80
2022-12-19T06:06:06.118Z,-5.69
2022-12-19T06:08:33.015Z,-5.51
2022-12-19T06:11:00.355Z,-5.32
2022-12-19T06:13:27.555Z,-5.07
2022-12-19T06:16:03.245Z,-4.84
2022-12-19T06:18:30.731Z,-4.79
2022-12-19T06:20:58.617Z,-4.87
2022-12-19T06:23:25.546Z,-5.03
2022-12-19T06:25:52.138Z,-5.09
2022-12-19T06:28:18.577Z,-5.13
2022-12-19T06:30:45.129Z,-4.98
2022-12-19T06:33:11.667Z,-4.86
2022-12-19T06:35:38.183Z,-4.97
2022-12-19T06:38:04.679Z,-5.10
2022-12-19T06:40:49.799Z,-5.19
2022-12-19T06:43:16.427Z,-5.15
2022-12-19T06:45:42.951Z,-5.18
2022-12-19T06:48:09.654Z,-4.99
2022-12-19T06:50:36.160Z,-4.84
2022-12-19T06:53:02.602Z,-4.93
2022-12-19T06:55:29.192Z,-5.00
2022-12-19T06:57:55.874Z,-5.00
2022-12-19T07:00:22.900Z,-4.97
2022-12-19T07:02:50.894Z,-5.00
2022-12-19T07:05:17.982Z,-4.99
2022-12-19T07:07:44.836Z,-4.98
2022-12-19T07:10:11.505Z,-4.98
2022-12-19T07:12:38.252Z,-4.95
2022-12-19T07:15:05.030Z,-4.93
2022-12-19T07:17:31.659Z,-4.90
2022-12-19T07:19:59.707Z,-4.72
2022-12-19T07:22:29.153Z,-4.55
2022-12-19T07:24:56.601Z,-4.62
2022-12-19T07:27:23.199Z,-4.70
2022-12-19T07:29:49.689Z,-4.69
2022-12-19T07:32:16.163Z,-4.67
2022-12-19T07:34:42.621Z,-4.55
2022-12-19T07:37:09.143Z,-4.45
2022-12-19T07:39:35.577Z,-4.52
2022-12-19T07:42:02.027Z,-4.54
2022-12-19T07:44:28.582Z,-4.61
2022-12-19T07:46:55.091Z,-4.64
2022-12-19T07:49:22.954Z,-4.59
2022-12-19T07:51:49.832Z,-4.54
2022-12-19T07:54:16.377Z,-4.33
2022-12-19T07:56:42.833Z,-4.45
2022-12-19T07:59:09.355Z,-4.45
2022-12-19T08:01:35.927Z,-4.49
2022-12-19T08:04:02.731Z,-4.52
2022-12-19T08:06:29.225Z,-4.45
2022-12-19T08:08:56.053Z,-4.27
2022-12-19T08:11:27.513Z,-4.10
2022-12-19T08:13:54.564Z,-4.01
2022-12-19T08:16:21.592Z,-4.02
2022-12-19T08:18:49.290Z,-4.08
2022-12-19T08:21:15.774Z,-4.13
2022-12-19T08:23:42.272Z,-4.14
2022-12-19T08:26:11.189Z,-4.16
2022-12-19T08:28:37.840Z,-4.01
2022-12-19T08:31:08.631Z,-4.06
2022-12-19T08:33:37.484Z,-4.17
2022-12-19T08:36:05.168Z,-4.17
2022-12-19T08:38:32.091Z,-4.18
2022-12-19T08:40:58.758Z,-4.17
2022-12-19T08:43:26.655Z,-4.15
2022-12-19T08:45:53.602Z,-4.00
2022-12-19T08:48:20.569Z,-3.86
2022-12-19T08:50:50.041Z,-3.77
2022-12-19T08:53:20.224Z,-3.76
2022-12-19T08:55:59.921Z,-3.79
2022-12-19T08:58:27.526Z,-3.79
2022-12-19T09:00:56.507Z,-3.69
2022-12-19T09:03:25.640Z,-3.70
2022-12-19T09:06:07.920Z,-3.75
2022-12-19T09:08:37.325Z,-3.93
2022-12-19T09:11:03.749Z,-3.91
2022-12-19T09:13:30.758Z,-3.93
2022-12-19T09:16:04.832Z,-3.91
2022-12-19T09:18:32.482Z,-3.93
2022-12-19T09:21:00.408Z,-3.88
2022-12-19T09:23:29.280Z,-3.72
2022-12-19T09:25:56.785Z,-3.70
2022-12-19T09:28:27.745Z,-3.76
2022-12-19T09:30:58.410Z,-3.72
2022-12-19T09:33:25.197Z,-3.64
2022-12-19T09:35:52.287Z,-3.67
2022-12-19T09:38:21.563Z,-3.69
2022-12-19T09:41:19.243Z,-3.71
2022-12-19T09:44:01.360Z,-3.49
2022-12-19T09:46:32.238Z,-3.53
2022-12-19T09:49:01.602Z,-3.52
2022-12-19T09:51:33.833Z,-3.50
2022-12-19T09:54:16.418Z,-3.51
2022-12-19T09:56:46.487Z,-3.38
2022-12-19T09:59:23.069Z,-3.31
2022-12-19T10:01:57.952Z,-3.20
2022-12-19T10:04:26.747Z,-3.08
2022-12-19T10:07:21.957Z,-2.95
2022-12-19T10:12:25.337Z,-2.88
2022-12-19T10:13:11.040Z,-2.97
2022-12-19T10:15:59.799Z,-3.09
2022-12-19T10:18:56.393Z,-3.02
2022-12-19T10:21:42.934Z,-2.90
2022-12-19T10:24:09.978Z,-3.34
2022-12-19T10:26:39.273Z,-3.49
2022-12-19T10:29:24.563Z,-3.51
2022-12-19T10:31:53.732Z,-3.42
2022-12-19T10:34:24.998Z,-3.18
2022-12-19T10:39:43.857Z,-3.22
2022-12-19T10:42:18.810Z,-3.15
2022-12-19T10:44:46.463Z,-3.07
2022-12-19T10:47:17.409Z,-3.00
2022-12-19T10:49:43.928Z,-2.98
2022-12-19T10:52:12.135Z,-2.95
2022-12-19T10:54:39.971Z,-2.75
2022-12-19T10:57:18.790Z,-2.81
2022-12-19T11:00:06.375Z,-2.80
2022-12-19T11:02:38.977Z,-2.78
2022-12-19T11:05:19.765Z,-2.73
2022-12-19T11:08:04.822Z,-2.60
2022-12-19T11:12:21.526Z,-2.39
2022-12-19T11:18:35.885Z,-2.53
2022-12-19T11:19:49.699Z,-2.46
2022-12-19T11:29:18.575Z,-2.50
2022-12-19T11:29:42.811Z,-2.47
2022-12-19T11:29:55.168Z,-2.30
2022-12-19T11:30:40.813Z,-2.25
2022-12-19T11:33:24.336Z,-2.40
2022-12-19T11:35:52.466Z,-2.42
2022-12-19T11:38:28.943Z,-2.30
2022-12-19T11:40:57.663Z,-2.11
2022-12-19T11:43:48.757Z,-2.15
2022-12-19T11:46:21.427Z,-2.18
2022-12-19T11:49:08.902Z,-2.18
2022-12-19T11:51:35.382Z,-2.20
2022-12-19T11:54:20.771Z,-2.09
2022-12-19T11:56:47.406Z,-2.06
2022-12-19T11:59:19.884Z,-2.11
2022-12-19T12:02:02.449Z,-2.11
2022-12-19T12:04:40.947Z,-2.09
2022-12-19T12:07:23.408Z,-2.01
2022-12-19T12:13:17.445Z,-1.88
2022-12-19T12:24:20.693Z,-1.93
2022-12-19T12:25:59.606Z,-1.95
2022-12-19T12:31:01.480Z,-2.00
2022-12-19T12:31:07.145Z,-1.89
2022-12-19T12:31:46.048Z,-1.81
2022-12-19T12:31:47.316Z,-1.83
2022-12-19T12:32:02.055Z,-1.78
2022-12-19T12:35:48.780Z,-1.81
2022-12-19T12:39:31.521Z,-1.68
2022-12-19T12:42:08.015Z,-1.70
2022-12-19T12:44:45.489Z,-1.70
2022-12-19T12:47:15.946Z,-1.69
2022-12-19T12:49:45.313Z,-1.55
2022-12-19T12:52:19.155Z,-1.55
2022-12-19T12:54:47.647Z,-1.58
2022-12-19T12:57:18.359Z,-1.59
2022-12-19T12:59:45.753Z,-1.61
2022-12-19T13:02:21.665Z,-1.48
2022-12-19T13:04:59.336Z,-1.46
2022-12-19T13:07:48.881Z,-1.48
2022-12-19T13:10:18.437Z,-1.51
2022-12-19T13:13:01.291Z,-1.51
2022-12-19T13:15:27.810Z,-1.52
2022-12-19T13:17:54.869Z,-1.51
2022-12-19T13:20:27.676Z,-1.51
2022-12-19T13:22:58.121Z,-1.44
2022-12-19T13:25:47.386Z,-1.35
2022-12-19T13:28:33.871Z,-1.37
2022-12-19T13:31:20.439Z,-1.32
2022-12-19T13:33:56.087Z,-1.32
2022-12-19T13:39:49.599Z,-1.29
2022-12-19T13:39:59.349Z,-1.25
2022-12-19T13:42:40.858Z,-1.22
2022-12-19T13:45:15.540Z,-1.15
2022-12-19T13:47:43.632Z,-1.14
2022-12-19T13:50:30.723Z,-1.11
2022-12-19T13:52:59.139Z,-1.29
2022-12-19T13:55:28.149Z,-1.48
2022-12-19T13:57:57.091Z,-1.52
2022-12-19T14:00:33.941Z,-1.36
2022-12-19T14:03:01.013Z,-1.33
2022-12-19T14:05:44.523Z,-1.50
2022-12-19T14:08:20.488Z,-1.54
2022-12-19T14:11:37.133Z,-1.44
2022-12-19T14:14:06.739Z,-1.42
2022-12-19T14:16:44.367Z,-1.54
2022-12-19T14:19:27.840Z,-1.59
2022-12-19T14:22:11.421Z,-1.59
2022-12-19T14:24:42.072Z,-1.62
2022-12-19T14:28:22.205Z,-1.58
2022-12-19T14:30:31.917Z,-1.60
2022-12-19T14:33:44.184Z,-1.47
2022-12-19T14:36:09.709Z,-1.52
2022-12-19T14:39:22.761Z,-1.57
2022-12-19T14:41:55.899Z,-1.60
2022-12-19T14:52:08.423Z,-1.62
2022-12-19T14:54:18.496Z,-1.63
2022-12-19T14:54:30.697Z,-1.60
2022-12-19T14:54:42.094Z,-1.46
2022-12-19T14:59:03.440Z,-1.59
2022-12-19T15:01:32.318Z,-1.60
2022-12-19T15:04:51.738Z,-1.61
2022-12-19T15:07:09.859Z,-1.55
2022-12-19T15:10:58.872Z,-1.51
2022-12-19T15:14:53.992Z,-1.61
2022-12-19T15:15:56.804Z,-1.68
2022-12-19T15:18:34.374Z,-1.68
2022-12-19T15:21:01.906Z,-1.73
2022-12-19T15:23:28.915Z,-1.64
2022-12-19T15:26:11.497Z,-1.56
2022-12-19T15:28:45.313Z,-1.68
2022-12-19T15:31:32.395Z,-1.70
2022-12-19T15:36:45.648Z,-1.80
2022-12-19T15:39:12.188Z,-1.65
2022-12-19T15:41:38.757Z,-1.60
2022-12-19T15:44:10.307Z,-1.70
2022-12-19T15:46:39.994Z,-1.78
2022-12-19T15:49:15.466Z,-1.81
2022-12-19T15:51:41.983Z,-1.83
2022-12-19T15:54:38.707Z,-1.79
2022-12-19T15:56:56.470Z,-1.68
2022-12-19T15:59:38.104Z,-1.80
2022-12-19T16:02:14.450Z,-1.87
2022-12-19T16:04:41.223Z,-1.92
2022-12-19T16:07:19.454Z,-1.93
2022-12-19T16:09:45.995Z,-1.92
2022-12-19T16:12:23.953Z,-1.71
2022-12-19T16:14:55.583Z,-1.76
2022-12-19T16:17:23.402Z,-1.84
2022-12-19T16:19:51.760Z,-1.87
2022-12-19T16:22:18.584Z,-1.86
2022-12-19T16:24:45.074Z,-1.88
2022-12-19T16:27:17.940Z,-1.76
2022-12-19T16:29:46.080Z,-1.77
2022-12-19T16:32:14.133Z,-1.86
2022-12-19T16:34:40.701Z,-1.88
2022-12-19T16:37:07.258Z,-1.89
2022-12-19T16:39:35.865Z,-1.92
2022-12-19T16:42:03.811Z,-1.87
2022-12-19T16:44:31.867Z,-1.80
2022-12-19T16:46:58.455Z,-1.90
2022-12-19T16:49:25.060Z,-1.93
2022-12-19T16:51:53.560Z,-1.96
2022-12-19T16:54:20.206Z,-1.97
2022-12-19T16:56:48.356Z,-1.85
2022-12-19T16:59:22.364Z,-1.92
2022-12-19T17:01:49.290Z,-1.99
2022-12-19T17:04:17.901Z,-2.05
2022-12-19T17:06:44.609Z,-2.04
2022-12-19T17:09:31.328Z,-2.05
2022-12-19T17:11:59.989Z,-1.94
2022-12-19T17:14:30.189Z,-1.89
2022-12-19T17:17:01.467Z,-1.97
2022-12-19T17:19:37.633Z,-2.06
2022-12-19T17:22:11.118Z,-2.11
2022-12-19T17:24:38.079Z,-2.10
2022-12-19T17:27:04.709Z,-2.02
2022-12-19T17:29:31.932Z,-1.94
2022-12-19T17:31:58.633Z,-2.00
2022-12-19T17:34:30.380Z,-2.01
2022-12-19T17:36:57.960Z,-2.03
2022-12-19T17:39:25.508Z,-2.03
2022-12-19T17:41:52.649Z,-1.97
2022-12-19T17:44:19.310Z,-1.95
2022-12-19T17:46:49.277Z,-1.86
2022-12-19T17:49:28.086Z,-1.94
2022-12-19T17:51:54.708Z,-1.95
2022-12-19T17:54:22.047Z,-1.94
2022-12-19T17:56:48.771Z,-1.91
2022-12-19T17:59:17.224Z,-1.85
2022-12-19T18:01:46.336Z,-1.82
2022-12-19T18:04:17.647Z,-1.77
2022-12-19T18:06:44.729Z,-1.73
2022-12-19T18:09:18.866Z,-1.78
2022-12-19T18:11:45.650Z,-1.88
2022-12-19T18:14:12.196Z,-1.92
2022-12-19T18:16:39.076Z,-1.84
2022-12-19T18:19:06.075Z,-1.83
2022-12-19T18:21:33.179Z,-2.07
2022-12-19T18:23:59.717Z,-2.17
2022-12-19T18:26:26.196Z,-2.23
2022-12-19T18:28:54.504Z,-2.29
2022-12-19T18:31:25.828Z,-2.13
2022-12-19T18:33:53.431Z,-2.17
2022-12-19T18:36:27.653Z,-2.26
2022-12-19T18:38:55.828Z,-2.34
2022-12-19T18:41:22.980Z,-2.35
2022-12-19T18:43:49.828Z,-2.34
2022-12-19T18:46:18.447Z,-2.38
2022-12-19T18:48:45.667Z,-2.40
2022-12-19T18:51:14.665Z,-2.30
2022-12-19T18:53:41.156Z,-2.26
2022-12-19T18:56:07.684Z,-2.34
2022-12-19T18:58:34.228Z,-2.37
2022-12-19T19:01:01.676Z,-2.38
2022-12-19T19:03:29.955Z,-2.44
2022-12-19T19:05:56.755Z,-2.41
2022-12-19T19:08:25.169Z,-2.35
2022-12-19T19:10:52.372Z,-2.23
2022-12-19T19:13:20.064Z,-2.35
2022-12-19T19:15:48.104Z,-2.43
2022-12-19T19:18:17.848Z,-2.42
2022-12-19T19:20:45.001Z,-2.40
2022-12-19T19:23:14.373Z,-2.41
2022-12-19T19:25:43.311Z,-2.44
2022-12-19T19:28:09.811Z,-2.28
2022-12-19T19:30:39.699Z,-2.24
2022-12-19T19:33:10.359Z,-2.34
2022-12-19T19:35:36.953Z,-2.35
2022-12-19T19:38:06.993Z,-2.37
2022-12-19T19:40:34.409Z,-2.39
2022-12-19T19:43:00.897Z,-2.22
2022-12-19T19:45:27.880Z,-2.23
2022-12-19T19:47:54.988Z,-2.31
2022-12-19T19:50:21.566Z,-2.35
2022-12-19T19:52:48.115Z,-2.33
2022-12-19T19:55:17.657Z,-2.36
2022-12-19T19:57:46.276Z,-2.33
2022-12-19T20:00:12.961Z,-2.19
2022-12-19T20:02:39.797Z,-2.20
2022-12-19T20:05:06.664Z,-2.27
2022-12-19T20:07:33.302Z,-2.25
2022-12-19T20:09:59.758Z,-2.25
2022-12-19T20:12:26.288Z,-2.23
2022-12-19T20:14:52.913Z,-2.21
2022-12-19T20:17:19.423Z,-2.10
2022-12-19T20:19:46.553Z,-2.11
2022-12-19T20:22:15.797Z,-2.13
2022-12-19T20:24:42.398Z,-2.16
2022-12-19T20:27:09.240Z,-2.10
2022-12-19T20:29:36.633Z,-2.06
2022-12-19T20:32:04.023Z,-2.08
2022-12-19T20:34:30.683Z,-2.05
2022-12-19T20:36:57.130Z,-1.96
2022-12-19T20:39:23.623Z,-1.94
2022-12-19T20:41:50.840Z,-1.91
2022-12-19T20:44:23.599Z,-1.91
2022-12-19T20:46:51.171Z,-1.89
2022-12-19T20:49:18.817Z,-1.83
2022-12-19T20:51:47.742Z,-1.82
2022-12-19T20:54:15.769Z,-1.91
2022-12-19T20:56:42.832Z,-1.99
2022-12-19T20:59:09.953Z,-1.95
2022-12-19T21:01:36.612Z,-1.84
2022-12-19T21:04:03.922Z,-2.01
2022-12-19T21:06:30.591Z,-2.22
2022-12-19T21:08:57.280Z,-2.25
2022-12-19T21:11:24.461Z,-2.28
2022-12-19T21:13:53.028Z,-2.18
2022-12-19T21:16:20.721Z,-2.11
2022-12-19T21:18:47.957Z,-2.38
2022-12-19T21:21:19.656Z,-2.38
2022-12-19T21:23:46.411Z,-2.32
2022-12-19T21:26:13.058Z,-2.44
2022-12-19T21:28:41.786Z,-2.38
2022-12-19T21:31:28.550Z,-2.34
2022-12-19T21:33:59.050Z,-2.17
2022-12-19T21:36:26.950Z,-2.23
2022-12-19T21:38:55.190Z,-2.24
2022-12-19T21:41:22.401Z,-2.32
2022-12-19T21:43:51.681Z,-2.48
2022-12-19T21:46:18.913Z,-2.52
2022-12-19T21:48:47.073Z,-2.61
2022-12-19T21:51:13.935Z,-2.45
2022-12-19T21:53:40.927Z,-2.22
2022-12-19T21:56:10.659Z,-2.20
2022-12-19T21:58:37.096Z,-2.24
2022-12-19T22:01:11.081Z,-2.27
2022-12-19T22:03:38.415Z,-2.26
2022-12-19T22:06:05.658Z,-2.27
2022-12-19T22:08:32.718Z,-2.13
2022-12-19T22:10:59.763Z,-2.10
2022-12-19T22:13:26.342Z,-2.18
2022-12-19T22:15:52.882Z,-2.22
2022-12-19T22:18:19.667Z,-2.25
2022-12-19T22:20:46.918Z,-2.28
2022-12-19T22:23:13.803Z,-2.26
2022-12-19T22:25:41.148Z,-2.10
2022-12-19T22:28:07.649Z,-2.17
2022-12-19T22:30:35.749Z,-2.25
2022-12-19T22:33:03.687Z,-2.25
2022-12-19T22:35:30.517Z,-2.26
2022-12-19T22:37:57.204Z,-2.25
2022-12-19T22:40:23.737Z,-2.11
2022-12-19T22:42:50.241Z,-2.12
2022-12-19T22:45:16.816Z,-2.12
2022-12-19T22:47:43.327Z,-2.11
2022-12-19T22:50:10.689Z,-2.10
2022-12-19T22:52:38.208Z,-2.10
2022-12-19T22:55:04.896Z,-2.00
2022-12-19T22:57:31.362Z,-2.02
2022-12-19T22:59:57.797Z,-2.06
2022-12-19T23:02:24.463Z,-2.00
2022-12-19T23:04:53.095Z,-1.99
2022-12-19T23:07:19.629Z,-1.97
2022-12-19T23:09:48.277Z,-1.91
2022-12-19T23:12:14.747Z,-1.89
2022-12-19T23:14:41.276Z,-1.83
2022-12-19T23:17:07.901Z,-1.77
2022-12-19T23:19:35.210Z,-1.89
2022-12-19T23:22:01.734Z,-2.08
2022-12-19T23:24:30.273Z,-2.18
2022-12-19T23:26:56.778Z,-2.19
2022-12-19T23:29:23.244Z,-2.08
2022-12-19T23:31:49.907Z,-2.20
2022-12-19T23:34:16.611Z,-2.29
2022-12-19T23:37:10.096Z,-2.12
2022-12-19T23:39:29.610Z,-2.05
2022-12-19T23:41:56.224Z,-2.14
2022-12-19T23:44:22.837Z,-2.15
2022-12-19T23:46:49.571Z,-2.22
2022-12-19T23:49:16.140Z,-2.22
2022-12-19T23:51:42.676Z,-2.18
2022-12-19T23:54:09.349Z,-2.15
2022-12-19T23:56:35.999Z,-2.02
2022-12-19T23:59:04.917Z,-2.00
